Sea Cloud II — 9HUE6 — position and weather

sailwx.info

Track history (hours):
 
Tides and Currents Weather Stations Pressure Air Temp Water Temp Dewpoint Dewpoint Depression Visibility Wind Speed Wind Dir Waves Ship Positions

Sea Cloud II

Ship's website: http://www.seacloud.com/en/the-ships/sea-cloud-ii.html

Last reported at 2016-Apr-29 03:09 UTC. Time now 2016-Apr-30 22:33 UTC.
Position N 40°41' E 001°42'.

Length 117 m; draft 5.9 m.

Type: Passenger vessel. MMSI: 248953000.

Date/timePositionNaut miles runAvg speedWind from/ knotsBaromVisibWave heightAir tempDewpointWater temp
2016-Apr-29 03:09N 40°41' E 001°42'7 6.9
2016-Apr-29 02:08N 40°34' E 001°45'5 7.0
2016-Apr-29 01:29N 40°30' E 001°47'7 7.2
2016-Apr-29 00:33N 40°23' E 001°50'7 7.5
2016-Apr-28 23:33N 40°16' E 001°53'7 7.4
2016-Apr-28 22:33N 40°09' E 001°56'8 7.7
2016-Apr-28 21:33N 40°02' E 001°60'8 8.4
2016-Apr-28 20:33N 39°54' E 002°04'9 9.1
2016-Apr-28 19:33N 39°46' E 002°08'1212.4
2016-Apr-28 18:33N 39°34' E 002°14'1212.4
2016-Apr-28 17:33N 39°26' E 002°26'1010.1
2016-Apr-28 16:33N 39°31' E 002°38'3 2.5
2016-Apr-28 15:34N 39°33' E 002°38'0 0.0
2016-Apr-28 14:33N 39°33' E 002°38'0 0.0
2016-Apr-28 13:31N 39°33' E 002°38'0 0.0
2016-Apr-28 12:33N 39°33' E 002°38'0 0.0
2016-Apr-28 11:33N 39°33' E 002°38'0 0.0
2016-Apr-28 10:31N 39°33' E 002°38'0 0.0
2016-Apr-28 09:30N 39°33' E 002°38'0 0.0
2016-Apr-28 08:33N 39°33' E 002°38'0 0.0
2016-Apr-28 07:33N 39°33' E 002°38'0 0.0
2016-Apr-28 06:33N 39°33' E 002°38'0 0.0
2016-Apr-28 05:33N 39°33' E 002°38'2 1.7
2016-Apr-28 04:33N 39°32' E 002°39'6 5.9
2016-Apr-28 03:33N 39°26' E 002°40'7 6.7
2016-Apr-28 02:33N 39°20' E 002°43'6 6.1
2016-Apr-28 01:33N 39°17' E 002°50'6 6.3
2016-Apr-28 00:33N 39°15' E 002°58'1010.1
2016-Apr-27 23:33N 39°16' E 003°11'1111.5
2016-Apr-27 22:33N 39°22' E 003°24'1111.2
2016-Apr-27 21:33N 39°28' E 003°36'12 0.6
2016-Apr-27 01:05N 39°31' E 003°52'1711.2
2016-Apr-26 23:32N 39°23' E 003°32'1110.9
2016-Apr-26 22:32N 39°16' E 003°21'1111.1
2016-Apr-26 21:33N 39°11' E 003°09'1111.1
2016-Apr-26 20:33N 39°06' E 002°56'1111.2
2016-Apr-26 19:33N 39°04' E 002°42'1111.1
2016-Apr-26 18:33N 39°03' E 002°27'1110.9
2016-Apr-26 17:33N 39°03' E 002°13'8 8.1
2016-Apr-26 16:33N 39°03' E 002°03'4 4.4
2016-Apr-26 15:33N 39°01' E 001°58'6 5.6
2016-Apr-26 14:32N 38°59' E 001°51'6 5.7
2016-Apr-26 13:31N 38°57' E 001°44'6 5.5
2016-Apr-26 12:29N 38°55' E 001°37'10 0.9
2016-Apr-26 01:33N 39°04' E 001°42'97 6.5
2016-Apr-25 10:33N 39°27' W 000°19'6 5.9
2016-Apr-25 09:31N 39°24' W 000°13'101 7.2
2016-Apr-24 19:33N 37°43' W 000°22'1010.3
2016-Apr-24 18:33N 37°35' W 000°30'24 6.1
2016-Apr-24 14:33N 37°13' W 000°43'232 5.3
2016-Apr-22 18:31N 36°01' W 005°17'215 5.5
2016-Apr-21 03:31N 37°36' W 009°18'1111.0
2016-Apr-21 02:33N 37°46' W 009°18'1111.1
2016-Apr-21 01:33N 37°57' W 009°19'1111.3
2016-Apr-21 00:33N 38°09' W 009°20'1111.3
2016-Apr-20 23:33N 38°20' W 009°22'1111.6
2016-Apr-20 22:33N 38°31' W 009°23'1010.1
2016-Apr-20 21:33N 38°41' W 009°18'8 7.9
2016-Apr-20 20:33N 38°42' W 009°08'0 0.0
2016-Apr-20 19:33N 38°42' W 009°08'0 0.0
2016-Apr-20 18:27N 38°42' W 009°08'0 0.0
2016-Apr-20 17:33N 38°42' W 009°08'1 0.7
2016-Apr-20 16:25N 38°43' W 009°07'0 0.0
2016-Apr-20 14:31N 38°43' W 009°07'0 0.0
2016-Apr-20 12:28N 38°43' W 009°07'0 0.0
2016-Apr-20 11:28N 38°43' W 009°07'0 0.0
2016-Apr-20 10:28N 38°43' W 009°07'0 0.0
2016-Apr-20 09:19N 38°43' W 009°07'0 0.1
2016-Apr-20 08:25N 38°43' W 009°07'0 0.1
2016-Apr-20 04:03N 38°43' W 009°07'0 0.0
2016-Apr-19 15:09N 38°43' W 009°07'0 0.0
2016-Apr-19 14:33N 38°43' W 009°07'0 0.0
2016-Apr-19 13:30N 38°43' W 009°07'0 0.0
2016-Apr-19 11:33N 38°43' W 009°07'0 0.0
2016-Apr-19 10:27N 38°43' W 009°07'0 0.0
2016-Apr-19 09:27N 38°43' W 009°07'0 0.0
2016-Apr-19 08:09N 38°43' W 009°07'0 0.0
2016-Apr-19 07:33N 38°43' W 009°07'0 0.0
2016-Apr-19 06:31N 38°43' W 009°07'0 0.0
2016-Apr-19 05:33N 38°43' W 009°07'0 0.0
2016-Apr-19 03:24N 38°43' W 009°07'  
Track history (hours):
 
Tides and Currents Weather Stations Pressure Air Temp Water Temp Dewpoint Dewpoint Depression Visibility Wind Speed Wind Dir Waves Ship Positions

Sea Cloud II

Ship's website: http://www.seacloud.com/en/the-ships/sea-cloud-ii.html

Last reported at 2016-Apr-29 03:09 UTC. Time now 2016-Apr-30 22:33 UTC.
Position N 40°41' E 001°42'.

Length 117 m; draft 5.9 m.

Type: Passenger vessel. MMSI: 248953000.

Date/timePositionNaut miles runAvg speedWind from/ knotsBaromVisibWave heightAir tempDewpointWater temp
2016-Apr-29 03:09N 40°41' E 001°42'7 6.9
2016-Apr-29 02:08N 40°34' E 001°45'5 7.0
2016-Apr-29 01:29N 40°30' E 001°47'7 7.2
2016-Apr-29 00:33N 40°23' E 001°50'7 7.5
2016-Apr-28 23:33N 40°16' E 001°53'7 7.4
2016-Apr-28 22:33N 40°09' E 001°56'8 7.7
2016-Apr-28 21:33N 40°02' E 001°60'8 8.4
2016-Apr-28 20:33N 39°54' E 002°04'9 9.1
2016-Apr-28 19:33N 39°46' E 002°08'1212.4
2016-Apr-28 18:33N 39°34' E 002°14'1212.4
2016-Apr-28 17:33N 39°26' E 002°26'1010.1
2016-Apr-28 16:33N 39°31' E 002°38'3 2.5
2016-Apr-28 15:34N 39°33' E 002°38'0 0.0
2016-Apr-28 14:33N 39°33' E 002°38'0 0.0
2016-Apr-28 13:31N 39°33' E 002°38'0 0.0
2016-Apr-28 12:33N 39°33' E 002°38'0 0.0
2016-Apr-28 11:33N 39°33' E 002°38'0 0.0
2016-Apr-28 10:31N 39°33' E 002°38'0 0.0
2016-Apr-28 09:30N 39°33' E 002°38'0 0.0
2016-Apr-28 08:33N 39°33' E 002°38'0 0.0
2016-Apr-28 07:33N 39°33' E 002°38'0 0.0
2016-Apr-28 06:33N 39°33' E 002°38'0 0.0
2016-Apr-28 05:33N 39°33' E 002°38'2 1.7
2016-Apr-28 04:33N 39°32' E 002°39'6 5.9
2016-Apr-28 03:33N 39°26' E 002°40'7 6.7
2016-Apr-28 02:33N 39°20' E 002°43'6 6.1
2016-Apr-28 01:33N 39°17' E 002°50'6 6.3
2016-Apr-28 00:33N 39°15' E 002°58'1010.1
2016-Apr-27 23:33N 39°16' E 003°11'1111.5
2016-Apr-27 22:33N 39°22' E 003°24'1111.2
2016-Apr-27 21:33N 39°28' E 003°36'12 0.6
2016-Apr-27 01:05N 39°31' E 003°52'1711.2
2016-Apr-26 23:32N 39°23' E 003°32'1110.9
2016-Apr-26 22:32N 39°16' E 003°21'1111.1
2016-Apr-26 21:33N 39°11' E 003°09'1111.1
2016-Apr-26 20:33N 39°06' E 002°56'1111.2
2016-Apr-26 19:33N 39°04' E 002°42'1111.1
2016-Apr-26 18:33N 39°03' E 002°27'1110.9
2016-Apr-26 17:33N 39°03' E 002°13'8 8.1
2016-Apr-26 16:33N 39°03' E 002°03'4 4.4
2016-Apr-26 15:33N 39°01' E 001°58'6 5.6
2016-Apr-26 14:32N 38°59' E 001°51'6 5.7
2016-Apr-26 13:31N 38°57' E 001°44'6 5.5
2016-Apr-26 12:29N 38°55' E 001°37'10 0.9
2016-Apr-26 01:33N 39°04' E 001°42'97 6.5
2016-Apr-25 10:33N 39°27' W 000°19'6 5.9
2016-Apr-25 09:31N 39°24' W 000°13'101 7.2
2016-Apr-24 19:33N 37°43' W 000°22'1010.3
2016-Apr-24 18:33N 37°35' W 000°30'24 6.1
2016-Apr-24 14:33N 37°13' W 000°43'232 5.3
2016-Apr-22 18:31N 36°01' W 005°17'215 5.5
2016-Apr-21 03:31N 37°36' W 009°18'1111.0
2016-Apr-21 02:33N 37°46' W 009°18'1111.1
2016-Apr-21 01:33N 37°57' W 009°19'1111.3
2016-Apr-21 00:33N 38°09' W 009°20'1111.3
2016-Apr-20 23:33N 38°20' W 009°22'1111.6
2016-Apr-20 22:33N 38°31' W 009°23'1010.1
2016-Apr-20 21:33N 38°41' W 009°18'8 7.9
2016-Apr-20 20:33N 38°42' W 009°08'0 0.0
2016-Apr-20 19:33N 38°42' W 009°08'0 0.0
2016-Apr-20 18:27N 38°42' W 009°08'0 0.0
2016-Apr-20 17:33N 38°42' W 009°08'1 0.7
2016-Apr-20 16:25N 38°43' W 009°07'0 0.0
2016-Apr-20 14:31N 38°43' W 009°07'0 0.0
2016-Apr-20 12:28N 38°43' W 009°07'0 0.0
2016-Apr-20 11:28N 38°43' W 009°07'0 0.0
2016-Apr-20 10:28N 38°43' W 009°07'0 0.0
2016-Apr-20 09:19N 38°43' W 009°07'0 0.1
2016-Apr-20 08:25N 38°43' W 009°07'0 0.1
2016-Apr-20 04:03N 38°43' W 009°07'0 0.0
2016-Apr-19 15:09N 38°43' W 009°07'0 0.0
2016-Apr-19 14:33N 38°43' W 009°07'0 0.0
2016-Apr-19 13:30N 38°43' W 009°07'0 0.0
2016-Apr-19 11:33N 38°43' W 009°07'0 0.0
2016-Apr-19 10:27N 38°43' W 009°07'0 0.0
2016-Apr-19 09:27N 38°43' W 009°07'0 0.0
2016-Apr-19 08:09N 38°43' W 009°07'0 0.0
2016-Apr-19 07:33N 38°43' W 009°07'0 0.0
2016-Apr-19 06:31N 38°43' W 009°07'0 0.0
2016-Apr-19 05:33N 38°43' W 009°07'0 0.0
2016-Apr-19 03:24N 38°43' W 009°07'  

Dump ship's entire track history